createdAt,value
2019-03-24T00:00:07.784Z,7.00
2019-03-24T00:02:36.298Z,7.10
2019-03-24T00:05:05.828Z,7.10
2019-03-24T00:07:34.282Z,7.10
2019-03-24T00:10:02.881Z,7.10
2019-03-24T00:12:31.339Z,7.10
2019-03-24T00:14:59.831Z,7.10
2019-03-24T00:17:28.280Z,7.10
2019-03-24T00:19:56.734Z,7.20
2019-03-24T00:22:25.248Z,7.20
2019-03-24T00:24:53.707Z,7.30
2019-03-24T00:27:22.167Z,7.40
2019-03-24T00:29:53.771Z,7.40
2019-03-24T00:32:22.245Z,7.40
2019-03-24T00:34:50.690Z,7.40
2019-03-24T00:37:19.168Z,7.30
2019-03-24T00:39:47.631Z,7.30
2019-03-24T00:42:16.139Z,7.30
2019-03-24T00:44:44.591Z,7.20
2019-03-24T00:47:13.111Z,7.20
2019-03-24T00:49:41.591Z,7.10
2019-03-24T00:52:10.040Z,7.10
2019-03-24T00:54:38.535Z,7.10
2019-03-24T00:57:06.984Z,7.00
2019-03-24T00:59:35.486Z,7.00
2019-03-24T01:02:03.943Z,7.00
2019-03-24T01:04:32.395Z,6.90
2019-03-24T01:07:03.239Z,6.90
2019-03-24T01:09:31.789Z,6.80
2019-03-24T01:12:00.234Z,6.80
2019-03-24T01:14:28.719Z,6.70
2019-03-24T01:16:57.210Z,6.70
2019-03-24T01:19:25.659Z,6.50
2019-03-24T01:21:54.219Z,6.40
2019-03-24T01:24:23.007Z,6.40
2019-03-24T01:26:51.466Z,6.30
2019-03-24T01:29:19.928Z,6.20
2019-03-24T01:31:48.449Z,6.20
2019-03-24T01:34:16.900Z,6.10
2019-03-24T01:36:45.345Z,6.00
2019-03-24T01:39:13.835Z,5.90
2019-03-24T01:41:42.287Z,5.90
2019-03-24T01:44:10.779Z,5.80
2019-03-24T01:46:39.276Z,5.70
2019-03-24T01:49:07.799Z,5.70
2019-03-24T01:51:36.282Z,5.70
2019-03-24T01:54:04.730Z,5.60
2019-03-24T01:56:33.233Z,5.60
2019-03-24T01:59:01.687Z,5.50
2019-03-24T02:01:30.145Z,5.50
2019-03-24T02:03:58.661Z,5.40
2019-03-24T02:06:27.114Z,5.40
2019-03-24T02:08:55.770Z,5.30
2019-03-24T02:11:24.558Z,5.20
2019-03-24T02:13:53.061Z,5.30
2019-03-24T02:16:21.506Z,5.20
2019-03-24T02:18:50.041Z,5.20
2019-03-24T02:21:18.531Z,5.10
2019-03-24T02:23:48.705Z,5.00
2019-03-24T02:26:17.150Z,5.00
2019-03-24T02:28:45.600Z,4.90
2019-03-24T02:31:14.114Z,4.90
2019-03-24T02:33:42.565Z,4.80
2019-03-24T02:36:11.015Z,4.70
2019-03-24T02:38:39.504Z,4.70
2019-03-24T02:41:07.952Z,4.60
2019-03-24T02:43:36.437Z,4.60
2019-03-24T02:46:04.889Z,4.50
2019-03-24T02:48:33.336Z,4.40
2019-03-24T02:51:01.872Z,4.40
2019-03-24T02:53:30.394Z,4.40
2019-03-24T02:55:58.844Z,4.30
2019-03-24T02:58:27.340Z,4.20
2019-03-24T03:00:55.856Z,4.20
2019-03-24T03:03:24.338Z,4.20
2019-03-24T03:05:52.793Z,4.10
2019-03-24T03:08:21.384Z,4.00
2019-03-24T03:10:50.013Z,4.00
2019-03-24T03:13:18.539Z,4.00
2019-03-24T03:15:47.023Z,3.90
2019-03-24T03:18:15.479Z,3.90
2019-03-24T03:20:44.046Z,3.90
2019-03-24T03:23:12.499Z,3.90
2019-03-24T03:25:40.946Z,3.80
2019-03-24T03:28:09.453Z,3.80
2019-03-24T03:30:37.985Z,3.70
2019-03-24T03:33:06.500Z,3.70
2019-03-24T03:35:35.022Z,3.70
2019-03-24T03:38:03.544Z,3.60
2019-03-24T03:40:32.062Z,3.60
2019-03-24T03:43:00.538Z,3.60
2019-03-24T03:45:29.557Z,3.50
2019-03-24T03:47:58.008Z,3.50
2019-03-24T03:50:26.568Z,3.40
2019-03-24T03:52:55.259Z,3.40
2019-03-24T03:55:23.812Z,3.40
2019-03-24T03:57:52.300Z,3.30
2019-03-24T04:00:51.771Z,3.30
2019-03-24T04:03:20.347Z,3.30
2019-03-24T04:05:48.790Z,3.30
2019-03-24T04:08:17.331Z,3.20
2019-03-24T04:10:45.919Z,3.20
2019-03-24T04:13:14.363Z,3.20
2019-03-24T04:15:42.881Z,3.20
2019-03-24T04:18:11.434Z,3.10
2019-03-24T04:20:39.919Z,3.10
2019-03-24T04:23:08.444Z,3.10
2019-03-24T04:25:37.108Z,3.00
2019-03-24T04:28:05.569Z,3.00
2019-03-24T04:30:34.087Z,2.90
2019-03-24T04:33:02.563Z,2.90
2019-03-24T04:35:31.042Z,2.90
2019-03-24T04:37:59.498Z,2.80
2019-03-24T04:40:27.979Z,2.80
2019-03-24T04:42:56.426Z,2.80
2019-03-24T04:45:24.897Z,2.70
2019-03-24T04:47:53.412Z,2.70
2019-03-24T04:50:21.929Z,2.70
2019-03-24T04:52:50.375Z,2.70
2019-03-24T04:55:18.880Z,2.60
2019-03-24T04:57:47.326Z,2.60
2019-03-24T05:00:16.305Z,2.50
2019-03-24T05:02:44.879Z,2.50
2019-03-24T05:05:13.332Z,2.50
2019-03-24T05:07:41.851Z,2.40
2019-03-24T05:10:27.405Z,2.40
2019-03-24T05:12:55.861Z,2.40
2019-03-24T05:15:24.804Z,2.40
2019-03-24T05:17:53.362Z,2.40
2019-03-24T05:20:21.803Z,2.30
2019-03-24T05:22:50.250Z,2.30
2019-03-24T05:25:18.773Z,2.30
2019-03-24T05:27:47.225Z,2.30
2019-03-24T05:30:15.664Z,2.30
2019-03-24T05:32:44.153Z,2.30
2019-03-24T05:35:12.597Z,2.30
2019-03-24T05:37:41.051Z,2.30
2019-03-24T05:40:09.545Z,2.30
2019-03-24T05:42:37.996Z,2.30
2019-03-24T05:45:07.578Z,2.40
2019-03-24T05:47:37.453Z,2.40
2019-03-24T05:50:08.450Z,2.50
2019-03-24T05:52:37.066Z,2.50
2019-03-24T05:55:08.767Z,2.60
2019-03-24T05:57:37.214Z,2.70
2019-03-24T06:00:07.557Z,2.80
2019-03-24T06:02:35.283Z,2.80
2019-03-24T06:05:04.475Z,2.90
2019-03-24T06:07:32.916Z,2.90
2019-03-24T06:10:01.405Z,3.00
2019-03-24T06:12:29.849Z,3.10
2019-03-24T06:14:58.293Z,3.10
2019-03-24T06:17:26.806Z,3.20
2019-03-24T06:19:55.327Z,3.30
2019-03-24T06:22:23.774Z,3.30
2019-03-24T06:24:52.286Z,3.40
2019-03-24T06:27:20.730Z,3.50
2019-03-24T06:29:49.173Z,3.60
2019-03-24T06:32:17.668Z,3.70
2019-03-24T06:34:46.114Z,3.80
2019-03-24T06:37:14.570Z,3.80
2019-03-24T06:39:43.122Z,3.90
2019-03-24T06:42:11.608Z,4.00
2019-03-24T06:44:40.045Z,4.10
2019-03-24T06:47:08.529Z,4.20
2019-03-24T06:49:37.013Z,4.20
2019-03-24T06:52:05.673Z,4.30
2019-03-24T06:54:34.121Z,4.40
2019-03-24T06:57:02.621Z,4.40
2019-03-24T06:59:31.061Z,4.60
2019-03-24T07:01:59.511Z,4.70
2019-03-24T07:04:28.017Z,4.90
2019-03-24T07:06:56.457Z,5.00
2019-03-24T07:09:24.907Z,5.10
2019-03-24T07:11:53.382Z,5.30
2019-03-24T07:14:21.823Z,5.40
2019-03-24T07:16:50.321Z,5.50
2019-03-24T07:19:18.769Z,5.70
2019-03-24T07:21:47.330Z,5.80
2019-03-24T07:24:15.867Z,5.90
2019-03-24T07:26:44.318Z,6.00
2019-03-24T07:29:12.767Z,6.20
2019-03-24T07:31:41.267Z,6.30
2019-03-24T07:34:09.714Z,6.40
2019-03-24T07:36:38.159Z,6.50
2019-03-24T07:39:07.677Z,6.50
2019-03-24T07:41:36.193Z,6.60
2019-03-24T07:44:04.841Z,6.60
2019-03-24T07:46:33.285Z,6.70
2019-03-24T07:49:01.757Z,6.70
2019-03-24T07:51:30.205Z,6.80
2019-03-24T07:53:58.824Z,6.90
2019-03-24T07:56:27.313Z,7.00
2019-03-24T07:58:55.757Z,7.10
2019-03-24T08:01:24.257Z,7.10
2019-03-24T08:03:52.708Z,7.10
2019-03-24T08:06:21.168Z,7.20
2019-03-24T08:08:49.729Z,7.20
2019-03-24T08:11:18.183Z,7.30
2019-03-24T08:13:53.638Z,7.40
2019-03-24T08:16:16.825Z,7.50
2019-03-24T08:18:45.280Z,7.70
2019-03-24T08:21:13.795Z,7.70
2019-03-24T08:23:42.246Z,7.80
2019-03-24T08:26:10.688Z,7.80
2019-03-24T08:28:39.166Z,7.80
2019-03-24T08:31:07.650Z,7.90
2019-03-24T08:33:36.093Z,7.90
2019-03-24T08:36:04.594Z,8.00
2019-03-24T08:38:33.058Z,8.10
2019-03-24T08:41:01.584Z,8.10
2019-03-24T08:43:30.067Z,8.20
2019-03-24T08:45:58.586Z,8.20
2019-03-24T08:48:27.031Z,8.30
2019-03-24T08:50:55.482Z,8.30
2019-03-24T08:53:23.995Z,8.40
2019-03-24T08:55:52.437Z,8.50
2019-03-24T08:58:20.888Z,8.60
2019-03-24T09:00:49.901Z,8.70
2019-03-24T09:03:18.416Z,8.70
2019-03-24T09:05:47.055Z,8.60
2019-03-24T09:08:15.579Z,8.60
2019-03-24T09:10:44.105Z,8.70
2019-03-24T09:13:12.617Z,8.70
2019-03-24T09:15:43.150Z,8.80
2019-03-24T09:18:11.239Z,9.00
2019-03-24T09:20:41.831Z,9.00
2019-03-24T09:23:10.735Z,9.10
2019-03-24T09:25:39.335Z,9.20
2019-03-24T09:28:09.232Z,9.30
2019-03-24T09:30:38.718Z,9.50
2019-03-24T09:33:07.803Z,9.50
2019-03-24T09:35:36.358Z,9.70
2019-03-24T09:38:26.302Z,9.80
2019-03-24T09:40:54.835Z,9.90
2019-03-24T09:43:23.338Z,10.00
2019-03-24T09:45:51.781Z,9.90
2019-03-24T09:48:20.500Z,9.90
2019-03-24T09:50:48.949Z,9.80
2019-03-24T09:53:17.393Z,9.70
2019-03-24T09:55:46.809Z,9.60
2019-03-24T09:58:15.263Z,9.70
2019-03-24T10:00:43.705Z,9.70
2019-03-24T10:03:12.651Z,9.70
2019-03-24T10:05:41.133Z,9.60
2019-03-24T10:08:09.642Z,9.50
2019-03-24T10:10:38.089Z,9.40
2019-03-24T10:13:06.533Z,9.50
2019-03-24T10:15:35.018Z,9.60
2019-03-24T10:18:03.535Z,9.70
2019-03-24T10:20:32.012Z,9.80
2019-03-24T10:23:00.468Z,9.80
2019-03-24T10:25:29.035Z,10.00
2019-03-24T10:27:57.521Z,10.10
2019-03-24T10:30:26.046Z,10.20
2019-03-24T10:32:54.693Z,10.40
2019-03-24T10:35:23.156Z,10.50
2019-03-24T10:37:51.638Z,10.90
2019-03-24T10:40:28.215Z,11.00
2019-03-24T10:42:50.326Z,11.00
2019-03-24T10:45:18.794Z,11.10
2019-03-24T10:47:47.296Z,11.20
2019-03-24T10:50:15.890Z,11.20
2019-03-24T10:52:44.397Z,11.30
2019-03-24T10:55:13.271Z,11.20
2019-03-24T10:57:41.790Z,11.00
2019-03-24T11:00:13.378Z,11.00
2019-03-24T11:02:41.861Z,11.10
2019-03-24T11:05:10.961Z,11.10
2019-03-24T11:07:39.503Z,11.20
2019-03-24T11:10:09.190Z,11.20
2019-03-24T11:12:37.714Z,11.50
2019-03-24T11:15:08.244Z,11.70
2019-03-24T11:17:36.694Z,11.90
2019-03-24T11:20:07.166Z,12.20
2019-03-24T11:22:34.835Z,12.40
2019-03-24T11:25:04.153Z,12.70
2019-03-24T11:27:32.680Z,12.90
2019-03-24T11:30:01.139Z,13.10
2019-03-24T11:32:29.604Z,13.10
2019-03-24T11:34:58.119Z,13.30
2019-03-24T11:37:26.569Z,13.60
2019-03-24T11:39:55.017Z,13.60
2019-03-24T11:42:23.505Z,13.70
2019-03-24T11:44:51.967Z,13.30
2019-03-24T11:47:26.552Z,13.00
2019-03-24T11:49:49.985Z,12.90
2019-03-24T11:52:18.438Z,13.00
2019-03-24T11:54:46.957Z,13.30
2019-03-24T11:57:15.479Z,13.40
2019-03-24T11:59:43.961Z,13.50
2019-03-24T12:02:12.494Z,13.80
2019-03-24T12:04:40.948Z,14.20
2019-03-24T12:07:11.719Z,14.40
2019-03-24T12:09:40.259Z,14.70
2019-03-24T12:12:08.777Z,14.80
2019-03-24T12:14:37.258Z,14.60
2019-03-24T12:17:05.773Z,14.80
2019-03-24T12:19:34.238Z,14.80
2019-03-24T12:22:02.769Z,15.10
2019-03-24T12:24:31.298Z,15.40
2019-03-24T12:26:59.759Z,15.50
2019-03-24T12:29:28.280Z,15.60
2019-03-24T12:31:56.761Z,15.80
2019-03-24T12:34:25.285Z,15.80
2019-03-24T12:36:53.791Z,15.50
2019-03-24T12:39:22.286Z,15.40
2019-03-24T12:41:50.769Z,15.30
2019-03-24T12:44:19.254Z,15.50
2019-03-24T12:46:47.703Z,15.90
2019-03-24T12:49:16.185Z,16.30
2019-03-24T12:51:44.672Z,16.50
2019-03-24T12:54:13.129Z,16.60
2019-03-24T12:56:41.646Z,16.30
2019-03-24T12:59:10.102Z,16.00
2019-03-24T13:01:38.554Z,16.00
2019-03-24T13:04:07.067Z,15.90
2019-03-24T13:06:35.524Z,16.00
2019-03-24T13:09:05.821Z,16.40
2019-03-24T13:11:34.357Z,16.60
2019-03-24T13:14:02.818Z,16.60
2019-03-24T13:16:31.341Z,16.60
2019-03-24T13:18:59.855Z,16.50
2019-03-24T13:21:28.303Z,16.20
2019-03-24T13:23:56.746Z,16.10
2019-03-24T13:26:25.269Z,16.30
2019-03-24T13:28:53.732Z,16.60
2019-03-24T13:31:22.191Z,16.70
2019-03-24T13:33:50.679Z,16.80
2019-03-24T13:36:20.265Z,17.30
2019-03-24T13:38:49.453Z,16.90
2019-03-24T13:41:17.908Z,16.50
2019-03-24T13:43:46.357Z,16.00
2019-03-24T13:46:14.843Z,15.80
2019-03-24T13:48:43.307Z,15.30
2019-03-24T13:51:11.865Z,15.20
2019-03-24T13:53:40.317Z,15.10
2019-03-24T13:56:08.874Z,15.00
2019-03-24T13:58:37.356Z,14.80
2019-03-24T14:01:06.984Z,14.50
2019-03-24T14:03:35.669Z,14.30
2019-03-24T14:06:04.118Z,14.30
2019-03-24T14:08:32.566Z,14.10
2019-03-24T14:11:01.137Z,14.00
2019-03-24T14:13:29.600Z,14.00
2019-03-24T14:15:58.126Z,13.90
2019-03-24T14:18:26.798Z,14.00
2019-03-24T14:20:55.257Z,14.00
2019-03-24T14:23:23.842Z,13.90
2019-03-24T14:25:52.331Z,13.80
2019-03-24T14:28:20.805Z,13.80
2019-03-24T14:30:49.522Z,13.80
2019-03-24T14:33:18.144Z,13.80
2019-03-24T14:35:46.703Z,13.70
2019-03-24T14:38:15.264Z,13.70
2019-03-24T14:40:43.789Z,13.60
2019-03-24T14:43:12.581Z,13.50
2019-03-24T14:45:41.077Z,13.40
2019-03-24T14:48:09.610Z,13.50
2019-03-24T14:50:38.136Z,13.40
2019-03-24T14:53:06.773Z,13.40
2019-03-24T14:55:35.321Z,13.30
2019-03-24T14:58:04.041Z,13.30
2019-03-24T15:00:41.071Z,13.30
2019-03-24T15:03:09.799Z,13.20
2019-03-24T15:05:38.321Z,13.20
2019-03-24T15:08:08.631Z,13.10
2019-03-24T15:10:36.371Z,13.00
2019-03-24T15:13:05.126Z,12.90
2019-03-24T15:15:33.628Z,12.90
2019-03-24T15:18:02.149Z,12.90
2019-03-24T15:20:30.641Z,12.90
2019-03-24T15:22:59.133Z,12.90
2019-03-24T15:25:27.585Z,12.90
2019-03-24T15:27:56.094Z,12.90
2019-03-24T15:30:24.624Z,12.90
2019-03-24T15:32:53.592Z,12.90
2019-03-24T15:35:22.269Z,12.80
2019-03-24T15:37:50.726Z,12.80
2019-03-24T15:40:19.172Z,12.70
2019-03-24T15:42:47.703Z,12.70
2019-03-24T15:45:16.618Z,12.60
2019-03-24T15:47:45.080Z,12.50
2019-03-24T15:50:15.608Z,12.40
2019-03-24T15:52:43.313Z,12.30
2019-03-24T15:55:12.003Z,12.20
2019-03-24T15:57:40.530Z,12.20
2019-03-24T16:00:11.237Z,12.00
2019-03-24T16:02:39.760Z,12.00
2019-03-24T16:05:08.593Z,11.90
2019-03-24T16:07:37.079Z,11.80
2019-03-24T16:10:07.375Z,11.80
2019-03-24T16:12:35.987Z,11.70
2019-03-24T16:15:07.581Z,11.70
2019-03-24T16:17:36.103Z,11.60
2019-03-24T16:20:06.518Z,11.50
2019-03-24T16:22:34.257Z,11.50
2019-03-24T16:25:02.718Z,11.40
2019-03-24T16:27:31.423Z,11.30
2019-03-24T16:29:59.926Z,11.20
2019-03-24T16:32:28.378Z,11.10
2019-03-24T16:34:56.849Z,11.10
2019-03-24T16:37:25.436Z,11.00
2019-03-24T16:39:53.886Z,11.00
2019-03-24T16:42:22.347Z,10.90
2019-03-24T16:44:50.852Z,10.90
2019-03-24T16:47:19.306Z,10.90
2019-03-24T16:49:47.753Z,10.90
2019-03-24T16:52:16.273Z,11.00
2019-03-24T16:54:44.731Z,11.10
2019-03-24T16:57:13.263Z,11.10
2019-03-24T16:59:41.834Z,11.10
2019-03-24T17:02:10.303Z,11.10
2019-03-24T17:04:38.746Z,11.20
2019-03-24T17:07:07.336Z,11.10
2019-03-24T17:09:35.797Z,11.10
2019-03-24T17:12:04.336Z,10.90
2019-03-24T17:14:32.913Z,10.80
2019-03-24T17:17:01.358Z,10.70
2019-03-24T17:19:29.810Z,10.50
2019-03-24T17:21:58.760Z,10.40
2019-03-24T17:24:27.214Z,10.30
2019-03-24T17:26:55.658Z,10.10
2019-03-24T17:29:24.162Z,10.00
2019-03-24T17:31:52.614Z,9.90
2019-03-24T17:34:21.059Z,9.80
2019-03-24T17:36:49.571Z,9.80
2019-03-24T17:39:18.060Z,9.70
2019-03-24T17:41:46.505Z,9.60
2019-03-24T17:44:14.952Z,9.50
2019-03-24T17:46:43.426Z,9.40
2019-03-24T17:49:11.942Z,9.30
2019-03-24T17:51:40.389Z,9.20
2019-03-24T17:54:08.834Z,9.10
2019-03-24T17:56:37.320Z,9.00
2019-03-24T17:59:05.878Z,8.90
2019-03-24T18:01:34.400Z,8.80
2019-03-24T18:04:02.847Z,8.70
2019-03-24T18:06:31.293Z,8.60
2019-03-24T18:08:59.817Z,8.50
2019-03-24T18:11:28.254Z,8.40
2019-03-24T18:13:56.703Z,8.30
2019-03-24T18:16:25.229Z,8.20
2019-03-24T18:18:53.683Z,8.00
2019-03-24T18:21:22.197Z,7.80
2019-03-24T18:23:50.706Z,7.70
2019-03-24T18:26:19.149Z,7.50
2019-03-24T18:28:47.597Z,7.40
2019-03-24T18:31:16.126Z,7.30
2019-03-24T18:33:44.570Z,7.20
2019-03-24T18:36:13.014Z,7.00
2019-03-24T18:38:41.549Z,6.90
2019-03-24T18:41:10.000Z,6.80
2019-03-24T18:43:38.455Z,6.70
2019-03-24T18:46:06.937Z,6.60
2019-03-24T18:48:35.512Z,6.50
2019-03-24T18:51:04.121Z,6.40
2019-03-24T18:53:32.565Z,6.30
2019-03-24T18:56:01.050Z,6.20
2019-03-24T18:58:31.894Z,6.10
2019-03-24T19:00:59.760Z,6.10
2019-03-24T19:03:28.274Z,5.90
2019-03-24T19:05:56.795Z,5.90
2019-03-24T19:08:25.309Z,5.80
2019-03-24T19:10:53.763Z,5.70
2019-03-24T19:13:22.261Z,5.60
2019-03-24T19:15:50.702Z,5.60
2019-03-24T19:18:19.150Z,5.60
2019-03-24T19:20:47.657Z,5.50
2019-03-24T19:23:16.102Z,5.40
2019-03-24T19:25:44.769Z,5.30
2019-03-24T19:28:13.372Z,5.20
2019-03-24T19:30:41.825Z,5.20
2019-03-24T19:33:10.421Z,5.20
2019-03-24T19:35:39.508Z,5.10
2019-03-24T19:38:07.955Z,5.10
2019-03-24T19:40:36.566Z,5.00
2019-03-24T19:43:05.113Z,5.00
2019-03-24T19:45:33.643Z,4.90
2019-03-24T19:48:02.123Z,4.80
2019-03-24T19:50:30.573Z,4.80
2019-03-24T19:52:59.006Z,4.70
2019-03-24T19:55:27.518Z,4.70
2019-03-24T19:57:55.962Z,4.60
2019-03-24T20:00:24.417Z,4.60
2019-03-24T20:02:52.893Z,4.60
2019-03-24T20:05:21.337Z,4.50
2019-03-24T20:07:50.034Z,4.40
2019-03-24T20:10:18.541Z,4.40
2019-03-24T20:12:47.072Z,4.30
2019-03-24T20:15:15.677Z,4.30
2019-03-24T20:17:44.206Z,4.20
2019-03-24T20:20:12.998Z,4.20
2019-03-24T20:22:41.617Z,4.20
2019-03-24T20:25:10.426Z,4.10
2019-03-24T20:27:38.874Z,4.10
2019-03-24T20:30:10.665Z,4.10
2019-03-24T20:32:39.223Z,4.00
2019-03-24T20:35:08.661Z,4.00
2019-03-24T20:37:37.162Z,4.00
2019-03-24T20:40:07.030Z,3.90
2019-03-24T20:42:35.541Z,3.80
2019-03-24T20:45:06.246Z,3.80
2019-03-24T20:47:34.757Z,3.80
2019-03-24T20:50:04.181Z,3.70
2019-03-24T20:52:32.633Z,3.60
2019-03-24T20:55:01.153Z,3.60
2019-03-24T20:57:29.617Z,3.60
2019-03-24T20:59:58.468Z,3.60
2019-03-24T21:02:26.993Z,3.50
2019-03-24T21:04:55.442Z,3.50
2019-03-24T21:07:23.948Z,3.40
2019-03-24T21:09:52.402Z,3.40
2019-03-24T21:12:20.914Z,3.30
2019-03-24T21:14:49.375Z,3.30
2019-03-24T21:17:17.902Z,3.30
2019-03-24T21:19:46.454Z,3.20
2019-03-24T21:22:14.902Z,3.20
2019-03-24T21:24:43.411Z,3.20
2019-03-24T21:27:11.860Z,3.10
2019-03-24T21:29:40.305Z,3.10
2019-03-24T21:32:09.063Z,3.10
2019-03-24T21:34:37.597Z,3.00
2019-03-24T21:37:06.046Z,3.00
2019-03-24T21:39:34.557Z,3.00
2019-03-24T21:42:03.017Z,2.90
2019-03-24T21:44:31.471Z,2.90
2019-03-24T21:47:00.167Z,2.90
2019-03-24T21:49:28.619Z,2.80
2019-03-24T21:51:57.063Z,2.80
2019-03-24T21:54:25.585Z,2.80
2019-03-24T21:56:54.030Z,2.70
2019-03-24T21:59:22.546Z,2.70
2019-03-24T22:01:51.063Z,2.70
2019-03-24T22:04:19.505Z,2.90
2019-03-24T22:06:47.961Z,2.80
2019-03-24T22:09:16.447Z,2.80
2019-03-24T22:11:44.891Z,2.70
2019-03-24T22:14:15.513Z,2.70
2019-03-24T22:16:43.585Z,2.60
2019-03-24T22:19:12.272Z,2.60
2019-03-24T22:21:40.753Z,2.60
2019-03-24T22:24:09.273Z,2.60
2019-03-24T22:26:37.721Z,2.60
2019-03-24T22:29:06.170Z,2.60
2019-03-24T22:31:34.744Z,2.60
2019-03-24T22:34:03.880Z,2.50
2019-03-24T22:36:32.365Z,2.60
2019-03-24T22:39:00.917Z,2.50
2019-03-24T22:41:29.377Z,2.50
2019-03-24T22:43:57.891Z,2.50
2019-03-24T22:46:26.346Z,2.40
2019-03-24T22:48:54.806Z,2.40
2019-03-24T22:51:23.317Z,2.40
2019-03-24T22:54:02.799Z,2.40
2019-03-24T22:56:21.937Z,2.40
2019-03-24T22:58:50.434Z,2.30
2019-03-24T23:01:19.020Z,2.30
2019-03-24T23:03:47.477Z,2.30
2019-03-24T23:06:15.960Z,2.20
2019-03-24T23:08:44.417Z,2.20
2019-03-24T23:11:12.904Z,2.20
2019-03-24T23:13:41.391Z,2.20
2019-03-24T23:16:09.834Z,2.20
2019-03-24T23:18:38.320Z,2.20
2019-03-24T23:21:06.801Z,2.20
2019-03-24T23:23:35.249Z,2.20
2019-03-24T23:26:03.826Z,2.20
2019-03-24T23:28:32.287Z,2.20
2019-03-24T23:31:00.738Z,2.20
2019-03-24T23:33:29.310Z,2.30
2019-03-24T23:35:57.772Z,2.30
2019-03-24T23:38:26.214Z,2.30
2019-03-24T23:40:54.721Z,2.20
2019-03-24T23:43:23.237Z,2.20
2019-03-24T23:45:51.758Z,2.20
2019-03-24T23:48:20.271Z,2.30
2019-03-24T23:50:49.062Z,2.30
2019-03-24T23:53:17.506Z,2.30
2019-03-24T23:55:45.981Z,2.30
2019-03-24T23:58:14.490Z,2.40
